sensor_id;sensor_type;location;lat;lon;timestamp;P1;durP1;ratioP1;P2;durP2;ratioP2
14732;SDS011;7457;50.960;6.830;2023-06-10T00:01:49;13.13;;;11.80;;
14732;SDS011;7457;50.960;6.830;2023-06-10T00:04:15;13.43;;;11.13;;
14732;SDS011;7457;50.960;6.830;2023-06-10T00:06:42;12.20;;;11.07;;
14732;SDS011;7457;50.960;6.830;2023-06-10T00:09:13;13.50;;;11.88;;
14732;SDS011;7457;50.960;6.830;2023-06-10T00:11:39;14.75;;;12.30;;
14732;SDS011;7457;50.960;6.830;2023-06-10T00:14:05;13.32;;;11.90;;
14732;SDS011;7457;50.960;6.830;2023-06-10T00:16:31;13.98;;;11.68;;
14732;SDS011;7457;50.960;6.830;2023-06-10T00:18:58;13.95;;;12.55;;
14732;SDS011;7457;50.960;6.830;2023-06-10T00:21:29;14.90;;;12.32;;
14732;SDS011;7457;50.960;6.830;2023-06-10T00:26:40;13.90;;;12.48;;
14732;SDS011;7457;50.960;6.830;2023-06-10T00:29:07;13.70;;;12.30;;
14732;SDS011;7457;50.960;6.830;2023-06-10T00:31:36;17.05;;;14.00;;
14732;SDS011;7457;50.960;6.830;2023-06-10T00:34:02;13.90;;;12.45;;
14732;SDS011;7457;50.960;6.830;2023-06-10T00:36:28;13.88;;;12.57;;
14732;SDS011;7457;50.960;6.830;2023-06-10T00:38:55;14.25;;;12.50;;
14732;SDS011;7457;50.960;6.830;2023-06-10T00:41:21;15.27;;;12.77;;
14732;SDS011;7457;50.960;6.830;2023-06-10T00:43:46;14.80;;;13.30;;
14732;SDS011;7457;50.960;6.830;2023-06-10T00:46:12;14.25;;;12.88;;
14732;SDS011;7457;50.960;6.830;2023-06-10T00:48:41;14.55;;;13.02;;
14732;SDS011;7457;50.960;6.830;2023-06-10T00:51:08;14.10;;;12.70;;
14732;SDS011;7457;50.960;6.830;2023-06-10T00:53:36;15.75;;;12.63;;
14732;SDS011;7457;50.960;6.830;2023-06-10T00:56:04;15.70;;;13.13;;
14732;SDS011;7457;50.960;6.830;2023-06-10T00:58:29;16.10;;;13.60;;
14732;SDS011;7457;50.960;6.830;2023-06-10T01:00:56;15.10;;;13.60;;
14732;SDS011;7457;50.960;6.830;2023-06-10T01:03:22;17.77;;;13.95;;
14732;SDS011;7457;50.960;6.830;2023-06-10T01:05:50;14.35;;;12.93;;
14732;SDS011;7457;50.960;6.830;2023-06-10T01:08:37;15.63;;;12.63;;
14732;SDS011;7457;50.960;6.830;2023-06-10T01:11:13;14.75;;;13.15;;
14732;SDS011;7457;50.960;6.830;2023-06-10T01:13:44;14.73;;;13.32;;
14732;SDS011;7457;50.960;6.830;2023-06-10T01:16:11;14.80;;;13.43;;
14732;SDS011;7457;50.960;6.830;2023-06-10T01:18:37;16.15;;;13.13;;
14732;SDS011;7457;50.960;6.830;2023-06-10T01:21:07;14.30;;;12.90;;
14732;SDS011;7457;50.960;6.830;2023-06-10T01:23:34;14.95;;;13.45;;
14732;SDS011;7457;50.960;6.830;2023-06-10T01:26:00;15.18;;;13.70;;
14732;SDS011;7457;50.960;6.830;2023-06-10T01:28:33;15.20;;;13.10;;
14732;SDS011;7457;50.960;6.830;2023-06-10T01:31:08;15.50;;;13.55;;
14732;SDS011;7457;50.960;6.830;2023-06-10T01:33:37;15.02;;;12.82;;
14732;SDS011;7457;50.960;6.830;2023-06-10T01:36:07;15.35;;;13.75;;
14732;SDS011;7457;50.960;6.830;2023-06-10T01:38:35;15.77;;;14.15;;
14732;SDS011;7457;50.960;6.830;2023-06-10T01:41:04;18.55;;;14.18;;
14732;SDS011;7457;50.960;6.830;2023-06-10T01:43:34;15.18;;;13.68;;
14732;SDS011;7457;50.960;6.830;2023-06-10T01:46:02;16.52;;;14.77;;
14732;SDS011;7457;50.960;6.830;2023-06-10T01:48:27;15.77;;;14.07;;
14732;SDS011;7457;50.960;6.830;2023-06-10T01:50:53;15.23;;;13.63;;
14732;SDS011;7457;50.960;6.830;2023-06-10T01:53:21;14.73;;;13.25;;
14732;SDS011;7457;50.960;6.830;2023-06-10T01:55:47;16.40;;;14.00;;
14732;SDS011;7457;50.960;6.830;2023-06-10T01:58:13;15.93;;;14.32;;
14732;SDS011;7457;50.960;6.830;2023-06-10T02:00:38;15.65;;;13.88;;
14732;SDS011;7457;50.960;6.830;2023-06-10T02:03:04;15.20;;;13.60;;
14732;SDS011;7457;50.960;6.830;2023-06-10T02:05:30;15.38;;;13.77;;
14732;SDS011;7457;50.960;6.830;2023-06-10T02:07:55;15.60;;;12.77;;
14732;SDS011;7457;50.960;6.830;2023-06-10T02:10:21;14.35;;;12.98;;
14732;SDS011;7457;50.960;6.830;2023-06-10T02:12:47;14.48;;;13.05;;
14732;SDS011;7457;50.960;6.830;2023-06-10T02:15:12;14.82;;;12.73;;
14732;SDS011;7457;50.960;6.830;2023-06-10T02:17:38;15.35;;;13.38;;
14732;SDS011;7457;50.960;6.830;2023-06-10T02:20:04;14.60;;;12.82;;
14732;SDS011;7457;50.960;6.830;2023-06-10T02:22:32;14.80;;;13.30;;
14732;SDS011;7457;50.960;6.830;2023-06-10T02:24:58;15.27;;;13.32;;
14732;SDS011;7457;50.960;6.830;2023-06-10T02:27:24;14.63;;;13.13;;
14732;SDS011;7457;50.960;6.830;2023-06-10T02:29:50;14.32;;;12.90;;
14732;SDS011;7457;50.960;6.830;2023-06-10T02:32:15;13.75;;;12.45;;
14732;SDS011;7457;50.960;6.830;2023-06-10T02:34:42;14.20;;;11.80;;
14732;SDS011;7457;50.960;6.830;2023-06-10T02:37:10;16.63;;;12.48;;
14732;SDS011;7457;50.960;6.830;2023-06-10T02:39:36;13.80;;;12.05;;
14732;SDS011;7457;50.960;6.830;2023-06-10T02:42:02;15.20;;;13.13;;
14732;SDS011;7457;50.960;6.830;2023-06-10T02:44:28;14.90;;;12.85;;
14732;SDS011;7457;50.960;6.830;2023-06-10T02:46:53;15.63;;;12.90;;
14732;SDS011;7457;50.960;6.830;2023-06-10T02:49:19;17.10;;;12.88;;
14732;SDS011;7457;50.960;6.830;2023-06-10T02:51:44;14.52;;;13.05;;
14732;SDS011;7457;50.960;6.830;2023-06-10T02:54:10;17.80;;;13.32;;
14732;SDS011;7457;50.960;6.830;2023-06-10T02:56:36;21.77;;;14.23;;
14732;SDS011;7457;50.960;6.830;2023-06-10T02:59:06;17.42;;;13.85;;
14732;SDS011;7457;50.960;6.830;2023-06-10T03:01:33;22.85;;;15.30;;
14732;SDS011;7457;50.960;6.830;2023-06-10T03:04:01;17.00;;;13.25;;
14732;SDS011;7457;50.960;6.830;2023-06-10T03:06:28;17.42;;;14.40;;
14732;SDS011;7457;50.960;6.830;2023-06-10T03:08:54;17.85;;;13.70;;
14732;SDS011;7457;50.960;6.830;2023-06-10T03:11:20;18.00;;;15.05;;
14732;SDS011;7457;50.960;6.830;2023-06-10T03:13:45;19.13;;;15.00;;
14732;SDS011;7457;50.960;6.830;2023-06-10T03:16:11;16.65;;;14.88;;
14732;SDS011;7457;50.960;6.830;2023-06-10T03:18:37;16.50;;;14.85;;
14732;SDS011;7457;50.960;6.830;2023-06-10T03:21:03;16.40;;;14.70;;
14732;SDS011;7457;50.960;6.830;2023-06-10T03:23:29;16.08;;;13.70;;
14732;SDS011;7457;50.960;6.830;2023-06-10T03:25:54;19.70;;;14.15;;
14732;SDS011;7457;50.960;6.830;2023-06-10T03:28:20;15.40;;;13.55;;
14732;SDS011;7457;50.960;6.830;2023-06-10T03:30:46;15.70;;;14.07;;
14732;SDS011;7457;50.960;6.830;2023-06-10T03:33:12;14.68;;;13.38;;
14732;SDS011;7457;50.960;6.830;2023-06-10T03:35:39;16.05;;;14.25;;
14732;SDS011;7457;50.960;6.830;2023-06-10T03:38:04;15.02;;;13.52;;
14732;SDS011;7457;50.960;6.830;2023-06-10T03:40:30;16.00;;;14.30;;
14732;SDS011;7457;50.960;6.830;2023-06-10T03:42:57;17.30;;;14.43;;
14732;SDS011;7457;50.960;6.830;2023-06-10T03:45:23;19.75;;;15.88;;
14732;SDS011;7457;50.960;6.830;2023-06-10T03:47:49;17.67;;;15.82;;
14732;SDS011;7457;50.960;6.830;2023-06-10T03:50:15;18.45;;;16.15;;
14732;SDS011;7457;50.960;6.830;2023-06-10T03:52:41;19.02;;;16.15;;
14732;SDS011;7457;50.960;6.830;2023-06-10T03:55:07;19.17;;;16.52;;
14732;SDS011;7457;50.960;6.830;2023-06-10T03:57:35;17.92;;;16.02;;
14732;SDS011;7457;50.960;6.830;2023-06-10T04:00:01;17.45;;;15.65;;
14732;SDS011;7457;50.960;6.830;2023-06-10T04:02:31;18.45;;;16.55;;
14732;SDS011;7457;50.960;6.830;2023-06-10T04:04:57;17.05;;;15.27;;
14732;SDS011;7457;50.960;6.830;2023-06-10T04:07:23;18.42;;;16.50;;
14732;SDS011;7457;50.960;6.830;2023-06-10T04:09:49;17.98;;;16.08;;
14732;SDS011;7457;50.960;6.830;2023-06-10T04:12:15;18.50;;;15.32;;
14732;SDS011;7457;50.960;6.830;2023-06-10T04:14:41;19.00;;;16.58;;
14732;SDS011;7457;50.960;6.830;2023-06-10T04:17:08;17.35;;;15.57;;
14732;SDS011;7457;50.960;6.830;2023-06-10T04:19:33;20.17;;;16.30;;
14732;SDS011;7457;50.960;6.830;2023-06-10T04:22:00;16.38;;;14.65;;
14732;SDS011;7457;50.960;6.830;2023-06-10T04:24:28;17.30;;;15.48;;
14732;SDS011;7457;50.960;6.830;2023-06-10T04:26:53;19.13;;;15.18;;
14732;SDS011;7457;50.960;6.830;2023-06-10T04:29:19;18.40;;;14.95;;
14732;SDS011;7457;50.960;6.830;2023-06-10T04:31:44;17.45;;;15.25;;
14732;SDS011;7457;50.960;6.830;2023-06-10T04:34:11;17.60;;;15.50;;
14732;SDS011;7457;50.960;6.830;2023-06-10T04:36:37;16.05;;;14.25;;
14732;SDS011;7457;50.960;6.830;2023-06-10T04:39:03;16.00;;;14.40;;
14732;SDS011;7457;50.960;6.830;2023-06-10T04:41:30;16.40;;;14.73;;
14732;SDS011;7457;50.960;6.830;2023-06-10T04:43:56;15.98;;;14.13;;
14732;SDS011;7457;50.960;6.830;2023-06-10T04:46:22;14.45;;;13.07;;
14732;SDS011;7457;50.960;6.830;2023-06-10T04:48:49;15.65;;;13.27;;
14732;SDS011;7457;50.960;6.830;2023-06-10T04:51:15;15.35;;;13.70;;
14732;SDS011;7457;50.960;6.830;2023-06-10T04:53:41;14.25;;;12.10;;
14732;SDS011;7457;50.960;6.830;2023-06-10T04:56:07;14.32;;;12.75;;
14732;SDS011;7457;50.960;6.830;2023-06-10T04:58:33;17.33;;;12.32;;
14732;SDS011;7457;50.960;6.830;2023-06-10T05:00:58;14.10;;;12.60;;
14732;SDS011;7457;50.960;6.830;2023-06-10T05:03:24;14.23;;;12.80;;
14732;SDS011;7457;50.960;6.830;2023-06-10T05:05:51;13.40;;;12.05;;
14732;SDS011;7457;50.960;6.830;2023-06-10T05:08:16;13.27;;;11.88;;
14732;SDS011;7457;50.960;6.830;2023-06-10T05:10:43;14.23;;;12.15;;
14732;SDS011;7457;50.960;6.830;2023-06-10T05:13:08;13.65;;;11.98;;
14732;SDS011;7457;50.960;6.830;2023-06-10T05:15:34;12.85;;;11.65;;
14732;SDS011;7457;50.960;6.830;2023-06-10T05:18:00;15.35;;;12.38;;
14732;SDS011;7457;50.960;6.830;2023-06-10T05:20:27;13.10;;;11.60;;
14732;SDS011;7457;50.960;6.830;2023-06-10T05:22:54;18.02;;;12.68;;
14732;SDS011;7457;50.960;6.830;2023-06-10T05:25:20;16.45;;;12.50;;
14732;SDS011;7457;50.960;6.830;2023-06-10T05:27:45;13.90;;;12.27;;
14732;SDS011;7457;50.960;6.830;2023-06-10T05:30:11;14.57;;;11.15;;
14732;SDS011;7457;50.960;6.830;2023-06-10T05:32:37;14.07;;;12.35;;
14732;SDS011;7457;50.960;6.830;2023-06-10T05:35:03;11.93;;;10.68;;
14732;SDS011;7457;50.960;6.830;2023-06-10T05:37:29;14.48;;;12.13;;
14732;SDS011;7457;50.960;6.830;2023-06-10T05:39:55;14.15;;;10.88;;
14732;SDS011;7457;50.960;6.830;2023-06-10T05:42:21;10.88;;;9.77;;
14732;SDS011;7457;50.960;6.830;2023-06-10T05:44:46;10.80;;;9.68;;
14732;SDS011;7457;50.960;6.830;2023-06-10T05:47:12;10.75;;;9.73;;
14732;SDS011;7457;50.960;6.830;2023-06-10T05:49:38;15.82;;;9.32;;
14732;SDS011;7457;50.960;6.830;2023-06-10T05:52:03;13.75;;;9.55;;
14732;SDS011;7457;50.960;6.830;2023-06-10T05:54:30;13.48;;;9.10;;
14732;SDS011;7457;50.960;6.830;2023-06-10T05:56:55;10.02;;;9.02;;
14732;SDS011;7457;50.960;6.830;2023-06-10T05:59:21;9.60;;;8.70;;
14732;SDS011;7457;50.960;6.830;2023-06-10T06:01:47;9.85;;;8.82;;
14732;SDS011;7457;50.960;6.830;2023-06-10T06:04:15;9.60;;;8.70;;
14732;SDS011;7457;50.960;6.830;2023-06-10T06:06:41;8.95;;;8.02;;
14732;SDS011;7457;50.960;6.830;2023-06-10T06:09:06;10.05;;;8.25;;
14732;SDS011;7457;50.960;6.830;2023-06-10T06:11:33;9.45;;;8.60;;
14732;SDS011;7457;50.960;6.830;2023-06-10T06:13:59;9.85;;;7.57;;
14732;SDS011;7457;50.960;6.830;2023-06-10T06:16:25;12.82;;;8.73;;
14732;SDS011;7457;50.960;6.830;2023-06-10T06:18:51;10.50;;;9.32;;
14732;SDS011;7457;50.960;6.830;2023-06-10T06:21:16;9.75;;;8.43;;
14732;SDS011;7457;50.960;6.830;2023-06-10T06:23:42;10.15;;;8.98;;
14732;SDS011;7457;50.960;6.830;2023-06-10T06:26:08;9.32;;;8.43;;
14732;SDS011;7457;50.960;6.830;2023-06-10T06:28:33;11.30;;;10.13;;
14732;SDS011;7457;50.960;6.830;2023-06-10T06:30:59;9.02;;;8.23;;
14732;SDS011;7457;50.960;6.830;2023-06-10T06:33:25;8.95;;;8.07;;
14732;SDS011;7457;50.960;6.830;2023-06-10T06:35:51;9.60;;;7.47;;
14732;SDS011;7457;50.960;6.830;2023-06-10T06:38:17;8.27;;;7.30;;
14732;SDS011;7457;50.960;6.830;2023-06-10T06:40:42;9.65;;;7.40;;
14732;SDS011;7457;50.960;6.830;2023-06-10T06:43:08;7.65;;;6.95;;
14732;SDS011;7457;50.960;6.830;2023-06-10T06:45:34;7.25;;;6.50;;
14732;SDS011;7457;50.960;6.830;2023-06-10T06:47:59;7.75;;;6.97;;
14732;SDS011;7457;50.960;6.830;2023-06-10T06:50:25;8.75;;;7.38;;
14732;SDS011;7457;50.960;6.830;2023-06-10T06:52:51;7.45;;;6.57;;
14732;SDS011;7457;50.960;6.830;2023-06-10T06:55:16;10.57;;;6.32;;
14732;SDS011;7457;50.960;6.830;2023-06-10T06:57:42;6.95;;;5.93;;
14732;SDS011;7457;50.960;6.830;2023-06-10T07:00:08;7.50;;;6.70;;
14732;SDS011;7457;50.960;6.830;2023-06-10T07:02:34;7.47;;;6.78;;
14732;SDS011;7457;50.960;6.830;2023-06-10T07:05:00;7.35;;;6.70;;
14732;SDS011;7457;50.960;6.830;2023-06-10T07:07:26;9.55;;;5.88;;
14732;SDS011;7457;50.960;6.830;2023-06-10T07:09:52;6.68;;;6.03;;
14732;SDS011;7457;50.960;6.830;2023-06-10T07:12:18;11.70;;;6.60;;
14732;SDS011;7457;50.960;6.830;2023-06-10T07:14:44;6.75;;;6.15;;
14732;SDS011;7457;50.960;6.830;2023-06-10T07:17:09;8.65;;;6.65;;
14732;SDS011;7457;50.960;6.830;2023-06-10T07:19:35;9.10;;;6.25;;
14732;SDS011;7457;50.960;6.830;2023-06-10T07:22:01;7.85;;;6.55;;
14732;SDS011;7457;50.960;6.830;2023-06-10T07:24:26;7.70;;;6.35;;
14732;SDS011;7457;50.960;6.830;2023-06-10T07:26:52;6.80;;;6.00;;
14732;SDS011;7457;50.960;6.830;2023-06-10T07:29:18;7.28;;;6.47;;
14732;SDS011;7457;50.960;6.830;2023-06-10T07:31:43;9.77;;;6.13;;
14732;SDS011;7457;50.960;6.830;2023-06-10T07:34:09;6.80;;;6.10;;
14732;SDS011;7457;50.960;6.830;2023-06-10T07:36:35;7.30;;;6.55;;
14732;SDS011;7457;50.960;6.830;2023-06-10T07:39:01;6.80;;;6.20;;
14732;SDS011;7457;50.960;6.830;2023-06-10T07:41:27;7.30;;;6.38;;
14732;SDS011;7457;50.960;6.830;2023-06-10T07:43:53;7.97;;;6.07;;
14732;SDS011;7457;50.960;6.830;2023-06-10T07:46:22;7.28;;;6.15;;
14732;SDS011;7457;50.960;6.830;2023-06-10T07:48:48;7.65;;;6.70;;
14732;SDS011;7457;50.960;6.830;2023-06-10T07:51:14;8.90;;;6.80;;
14732;SDS011;7457;50.960;6.830;2023-06-10T07:53:41;9.55;;;6.72;;
14732;SDS011;7457;50.960;6.830;2023-06-10T07:56:06;9.70;;;6.35;;
14732;SDS011;7457;50.960;6.830;2023-06-10T07:58:32;7.70;;;6.88;;
14732;SDS011;7457;50.960;6.830;2023-06-10T08:00:58;10.05;;;6.10;;
14732;SDS011;7457;50.960;6.830;2023-06-10T08:03:23;10.40;;;6.78;;
14732;SDS011;7457;50.960;6.830;2023-06-10T08:05:49;7.65;;;6.57;;
14732;SDS011;7457;50.960;6.830;2023-06-10T08:08:15;6.78;;;6.18;;
14732;SDS011;7457;50.960;6.830;2023-06-10T08:10:40;10.02;;;6.45;;
14732;SDS011;7457;50.960;6.830;2023-06-10T08:13:07;7.47;;;6.45;;
14732;SDS011;7457;50.960;6.830;2023-06-10T08:15:33;10.23;;;7.10;;
14732;SDS011;7457;50.960;6.830;2023-06-10T08:17:58;9.70;;;6.30;;
14732;SDS011;7457;50.960;6.830;2023-06-10T08:20:24;11.13;;;6.88;;
14732;SDS011;7457;50.960;6.830;2023-06-10T08:22:50;7.50;;;6.80;;
14732;SDS011;7457;50.960;6.830;2023-06-10T08:25:16;8.73;;;6.70;;
14732;SDS011;7457;50.960;6.830;2023-06-10T08:27:41;7.30;;;6.43;;
14732;SDS011;7457;50.960;6.830;2023-06-10T08:30:07;8.23;;;6.68;;
14732;SDS011;7457;50.960;6.830;2023-06-10T08:32:35;7.95;;;7.00;;
14732;SDS011;7457;50.960;6.830;2023-06-10T08:35:01;7.40;;;6.70;;
14732;SDS011;7457;50.960;6.830;2023-06-10T08:37:27;13.05;;;6.88;;
14732;SDS011;7457;50.960;6.830;2023-06-10T08:39:53;8.73;;;6.32;;
14732;SDS011;7457;50.960;6.830;2023-06-10T08:44:47;7.57;;;6.75;;
14732;SDS011;7457;50.960;6.830;2023-06-10T08:47:18;7.85;;;7.07;;
14732;SDS011;7457;50.960;6.830;2023-06-10T08:49:45;9.10;;;6.97;;
14732;SDS011;7457;50.960;6.830;2023-06-10T08:52:18;7.13;;;6.53;;
14732;SDS011;7457;50.960;6.830;2023-06-10T08:57:27;7.88;;;6.95;;
14732;SDS011;7457;50.960;6.830;2023-06-10T08:59:55;7.35;;;6.65;;
14732;SDS011;7457;50.960;6.830;2023-06-10T09:02:22;7.57;;;6.88;;
14732;SDS011;7457;50.960;6.830;2023-06-10T09:04:49;7.05;;;6.35;;
14732;SDS011;7457;50.960;6.830;2023-06-10T09:07:15;12.35;;;7.30;;
14732;SDS011;7457;50.960;6.830;2023-06-10T09:09:44;7.57;;;6.50;;
14732;SDS011;7457;50.960;6.830;2023-06-10T09:12:10;8.77;;;6.20;;
14732;SDS011;7457;50.960;6.830;2023-06-10T09:14:40;7.90;;;6.30;;
14732;SDS011;7457;50.960;6.830;2023-06-10T09:17:07;9.93;;;6.60;;
14732;SDS011;7457;50.960;6.830;2023-06-10T09:19:33;8.00;;;6.53;;
14732;SDS011;7457;50.960;6.830;2023-06-10T09:22:00;11.10;;;6.80;;
14732;SDS011;7457;50.960;6.830;2023-06-10T09:24:26;8.90;;;7.00;;
14732;SDS011;7457;50.960;6.830;2023-06-10T09:27:08;7.53;;;6.75;;
14732;SDS011;7457;50.960;6.830;2023-06-10T09:29:53;6.93;;;6.32;;
14732;SDS011;7457;50.960;6.830;2023-06-10T09:32:20;8.88;;;6.53;;
14732;SDS011;7457;50.960;6.830;2023-06-10T09:34:46;6.70;;;6.07;;
14732;SDS011;7457;50.960;6.830;2023-06-10T09:37:12;6.95;;;6.28;;
14732;SDS011;7457;50.960;6.830;2023-06-10T09:39:39;8.30;;;6.47;;
14732;SDS011;7457;50.960;6.830;2023-06-10T09:42:17;7.65;;;6.95;;
14732;SDS011;7457;50.960;6.830;2023-06-10T09:44:50;7.18;;;6.47;;
14732;SDS011;7457;50.960;6.830;2023-06-10T09:47:22;6.88;;;6.22;;
14732;SDS011;7457;50.960;6.830;2023-06-10T09:49:49;7.55;;;6.75;;
14732;SDS011;7457;50.960;6.830;2023-06-10T09:52:20;7.75;;;6.80;;
14732;SDS011;7457;50.960;6.830;2023-06-10T09:54:53;9.98;;;6.85;;
14732;SDS011;7457;50.960;6.830;2023-06-10T09:57:23;10.85;;;7.05;;
14732;SDS011;7457;50.960;6.830;2023-06-10T09:59:52;7.07;;;6.38;;
14732;SDS011;7457;50.960;6.830;2023-06-10T10:02:19;7.70;;;6.82;;
14732;SDS011;7457;50.960;6.830;2023-06-10T10:04:45;7.78;;;6.97;;
14732;SDS011;7457;50.960;6.830;2023-06-10T10:07:11;7.10;;;6.50;;
14732;SDS011;7457;50.960;6.830;2023-06-10T10:09:37;7.68;;;6.65;;
14732;SDS011;7457;50.960;6.830;2023-06-10T10:12:13;10.52;;;6.63;;
14732;SDS011;7457;50.960;6.830;2023-06-10T10:14:43;7.32;;;6.40;;
14732;SDS011;7457;50.960;6.830;2023-06-10T10:17:12;7.88;;;7.07;;
14732;SDS011;7457;50.960;6.830;2023-06-10T10:19:43;7.25;;;6.55;;
14732;SDS011;7457;50.960;6.830;2023-06-10T10:22:15;6.82;;;6.22;;
14732;SDS011;7457;50.960;6.830;2023-06-10T10:24:46;7.07;;;6.25;;
14732;SDS011;7457;50.960;6.830;2023-06-10T10:27:24;12.05;;;10.80;;
14732;SDS011;7457;50.960;6.830;2023-06-10T10:29:53;8.93;;;6.20;;
14732;SDS011;7457;50.960;6.830;2023-06-10T10:32:24;6.72;;;5.88;;
14732;SDS011;7457;50.960;6.830;2023-06-10T10:35:09;8.70;;;6.32;;
14732;SDS011;7457;50.960;6.830;2023-06-10T10:37:43;7.18;;;6.30;;
14732;SDS011;7457;50.960;6.830;2023-06-10T10:40:09;7.75;;;6.88;;
14732;SDS011;7457;50.960;6.830;2023-06-10T10:42:36;7.22;;;6.32;;
14732;SDS011;7457;50.960;6.830;2023-06-10T10:45:03;6.97;;;6.32;;
14732;SDS011;7457;50.960;6.830;2023-06-10T10:47:30;8.00;;;6.53;;
14732;SDS011;7457;50.960;6.830;2023-06-10T10:49:57;7.13;;;6.43;;
14732;SDS011;7457;50.960;6.830;2023-06-10T10:52:26;9.80;;;6.38;;
14732;SDS011;7457;50.960;6.830;2023-06-10T10:54:53;7.63;;;5.93;;
14732;SDS011;7457;50.960;6.830;2023-06-10T10:57:23;9.82;;;6.78;;
14732;SDS011;7457;50.960;6.830;2023-06-10T11:05:05;9.55;;;6.53;;
14732;SDS011;7457;50.960;6.830;2023-06-10T11:07:32;7.35;;;6.20;;
14732;SDS011;7457;50.960;6.830;2023-06-10T11:12:42;7.93;;;6.47;;
14732;SDS011;7457;50.960;6.830;2023-06-10T11:15:11;8.80;;;6.13;;
14732;SDS011;7457;50.960;6.830;2023-06-10T11:17:37;7.72;;;5.50;;
14732;SDS011;7457;50.960;6.830;2023-06-10T11:20:03;7.00;;;5.63;;
14732;SDS011;7457;50.960;6.830;2023-06-10T11:22:30;6.68;;;6.07;;
14732;SDS011;7457;50.960;6.830;2023-06-10T11:24:56;6.68;;;5.97;;
14732;SDS011;7457;50.960;6.830;2023-06-10T11:27:24;8.18;;;7.38;;
14732;SDS011;7457;50.960;6.830;2023-06-10T11:32:32;10.45;;;6.97;;
14732;SDS011;7457;50.960;6.830;2023-06-10T11:34:59;11.55;;;7.47;;
14732;SDS011;7457;50.960;6.830;2023-06-10T11:37:25;10.35;;;6.85;;
14732;SDS011;7457;50.960;6.830;2023-06-10T11:39:53;8.65;;;7.00;;
14732;SDS011;7457;50.960;6.830;2023-06-10T11:42:21;7.80;;;7.03;;
14732;SDS011;7457;50.960;6.830;2023-06-10T11:44:48;8.73;;;6.82;;
14732;SDS011;7457;50.960;6.830;2023-06-10T11:47:15;7.38;;;6.53;;
14732;SDS011;7457;50.960;6.830;2023-06-10T11:49:40;6.20;;;5.68;;
14732;SDS011;7457;50.960;6.830;2023-06-10T11:52:06;7.40;;;6.53;;
14732;SDS011;7457;50.960;6.830;2023-06-10T11:54:32;6.65;;;6.05;;
14732;SDS011;7457;50.960;6.830;2023-06-10T11:56:58;7.40;;;6.65;;
14732;SDS011;7457;50.960;6.830;2023-06-10T11:59:28;8.23;;;7.00;;
14732;SDS011;7457;50.960;6.830;2023-06-10T12:01:54;7.55;;;6.90;;
14732;SDS011;7457;50.960;6.830;2023-06-10T12:04:21;7.47;;;6.88;;
14732;SDS011;7457;50.960;6.830;2023-06-10T12:06:48;7.57;;;6.88;;
14732;SDS011;7457;50.960;6.830;2023-06-10T12:11:49;9.27;;;7.05;;
14732;SDS011;7457;50.960;6.830;2023-06-10T12:17:19;9.25;;;6.43;;
14732;SDS011;7457;50.960;6.830;2023-06-10T12:19:58;6.25;;;5.70;;
14732;SDS011;7457;50.960;6.830;2023-06-10T12:22:24;8.45;;;5.85;;
14732;SDS011;7457;50.960;6.830;2023-06-10T12:25:01;7.63;;;6.10;;
14732;SDS011;7457;50.960;6.830;2023-06-10T12:27:30;9.73;;;6.28;;
14732;SDS011;7457;50.960;6.830;2023-06-10T12:29:57;6.28;;;5.70;;
14732;SDS011;7457;50.960;6.830;2023-06-10T12:32:46;10.95;;;5.60;;
14732;SDS011;7457;50.960;6.830;2023-06-10T12:35:15;11.00;;;6.55;;
14732;SDS011;7457;50.960;6.830;2023-06-10T12:37:43;6.72;;;6.13;;
14732;SDS011;7457;50.960;6.830;2023-06-10T12:40:38;8.25;;;5.75;;
14732;SDS011;7457;50.960;6.830;2023-06-10T12:43:07;9.05;;;6.18;;
14732;SDS011;7457;50.960;6.830;2023-06-10T12:45:33;8.20;;;5.70;;
14732;SDS011;7457;50.960;6.830;2023-06-10T12:50:38;7.28;;;5.85;;
14732;SDS011;7457;50.960;6.830;2023-06-10T12:53:05;6.97;;;6.28;;
14732;SDS011;7457;50.960;6.830;2023-06-10T12:55:32;7.63;;;6.28;;
14732;SDS011;7457;50.960;6.830;2023-06-10T12:57:58;7.15;;;6.45;;
14732;SDS011;7457;50.960;6.830;2023-06-10T13:00:25;7.13;;;5.82;;
14732;SDS011;7457;50.960;6.830;2023-06-10T13:02:54;6.35;;;5.47;;
14732;SDS011;7457;50.960;6.830;2023-06-10T13:05:19;6.47;;;5.88;;
14732;SDS011;7457;50.960;6.830;2023-06-10T13:07:45;6.15;;;5.63;;
14732;SDS011;7457;50.960;6.830;2023-06-10T13:10:15;8.80;;;5.75;;
14732;SDS011;7457;50.960;6.830;2023-06-10T13:12:44;6.82;;;5.93;;
14732;SDS011;7457;50.960;6.830;2023-06-10T13:15:11;8.73;;;5.63;;
14732;SDS011;7457;50.960;6.830;2023-06-10T13:17:37;6.60;;;5.88;;
14732;SDS011;7457;50.960;6.830;2023-06-10T13:20:04;6.22;;;5.60;;
14732;SDS011;7457;50.960;6.830;2023-06-10T13:22:31;10.32;;;5.90;;
14732;SDS011;7457;50.960;6.830;2023-06-10T13:25:04;8.55;;;6.25;;
14732;SDS011;7457;50.960;6.830;2023-06-10T13:27:32;6.75;;;5.60;;
14732;SDS011;7457;50.960;6.830;2023-06-10T13:29:57;6.38;;;5.25;;
14732;SDS011;7457;50.960;6.830;2023-06-10T13:32:23;10.65;;;5.60;;
14732;SDS011;7457;50.960;6.830;2023-06-10T13:34:49;6.93;;;5.45;;
14732;SDS011;7457;50.960;6.830;2023-06-10T13:37:15;5.63;;;5.13;;
14732;SDS011;7457;50.960;6.830;2023-06-10T13:39:44;5.72;;;5.00;;
14732;SDS011;7457;50.960;6.830;2023-06-10T13:42:13;6.10;;;5.50;;
14732;SDS011;7457;50.960;6.830;2023-06-10T13:44:39;7.45;;;5.25;;
14732;SDS011;7457;50.960;6.830;2023-06-10T13:47:05;5.63;;;5.13;;
14732;SDS011;7457;50.960;6.830;2023-06-10T13:49:31;6.20;;;5.35;;
14732;SDS011;7457;50.960;6.830;2023-06-10T13:51:57;6.88;;;5.28;;
14732;SDS011;7457;50.960;6.830;2023-06-10T13:54:23;8.13;;;5.22;;
14732;SDS011;7457;50.960;6.830;2023-06-10T13:56:48;6.30;;;5.18;;
14732;SDS011;7457;50.960;6.830;2023-06-10T13:59:14;10.63;;;5.78;;
14732;SDS011;7457;50.960;6.830;2023-06-10T14:01:40;9.05;;;5.70;;
14732;SDS011;7457;50.960;6.830;2023-06-10T14:04:07;6.28;;;5.20;;
14732;SDS011;7457;50.960;6.830;2023-06-10T14:06:33;5.75;;;5.15;;
14732;SDS011;7457;50.960;6.830;2023-06-10T14:08:59;6.72;;;5.38;;
14732;SDS011;7457;50.960;6.830;2023-06-10T14:11:25;7.25;;;5.20;;
14732;SDS011;7457;50.960;6.830;2023-06-10T14:13:51;8.02;;;5.40;;
14732;SDS011;7457;50.960;6.830;2023-06-10T14:16:16;5.30;;;4.82;;
14732;SDS011;7457;50.960;6.830;2023-06-10T14:18:42;5.53;;;4.97;;
14732;SDS011;7457;50.960;6.830;2023-06-10T14:21:08;5.72;;;5.20;;
14732;SDS011;7457;50.960;6.830;2023-06-10T14:23:34;5.70;;;4.88;;
14732;SDS011;7457;50.960;6.830;2023-06-10T14:26:00;5.50;;;5.00;;
14732;SDS011;7457;50.960;6.830;2023-06-10T14:28:27;6.32;;;5.53;;
14732;SDS011;7457;50.960;6.830;2023-06-10T14:30:53;5.03;;;4.63;;
14732;SDS011;7457;50.960;6.830;2023-06-10T14:33:19;7.03;;;4.88;;
14732;SDS011;7457;50.960;6.830;2023-06-10T14:35:45;9.30;;;5.03;;
14732;SDS011;7457;50.960;6.830;2023-06-10T14:38:10;7.28;;;5.00;;
14732;SDS011;7457;50.960;6.830;2023-06-10T14:40:36;11.18;;;8.23;;
14732;SDS011;7457;50.960;6.830;2023-06-10T14:43:02;6.70;;;5.22;;
14732;SDS011;7457;50.960;6.830;2023-06-10T14:45:34;6.47;;;5.10;;
14732;SDS011;7457;50.960;6.830;2023-06-10T14:48:04;6.03;;;5.05;;
14732;SDS011;7457;50.960;6.830;2023-06-10T14:50:30;6.45;;;5.57;;
14732;SDS011;7457;50.960;6.830;2023-06-10T14:52:55;5.38;;;4.82;;
14732;SDS011;7457;50.960;6.830;2023-06-10T14:55:21;5.93;;;4.90;;
14732;SDS011;7457;50.960;6.830;2023-06-10T14:57:50;5.20;;;4.80;;
14732;SDS011;7457;50.960;6.830;2023-06-10T15:00:16;8.63;;;4.80;;
14732;SDS011;7457;50.960;6.830;2023-06-10T15:02:45;5.57;;;5.00;;
14732;SDS011;7457;50.960;6.830;2023-06-10T15:05:14;6.95;;;5.05;;
14732;SDS011;7457;50.960;6.830;2023-06-10T15:07:41;7.72;;;4.82;;
14732;SDS011;7457;50.960;6.830;2023-06-10T15:10:07;6.82;;;4.88;;
14732;SDS011;7457;50.960;6.830;2023-06-10T15:12:33;5.80;;;4.80;;
14732;SDS011;7457;50.960;6.830;2023-06-10T15:14:59;8.40;;;4.78;;
14732;SDS011;7457;50.960;6.830;2023-06-10T15:17:24;8.30;;;4.78;;